Time;durP1;ratioP1;P1;durP2;ratioP2;P2;SDS_P1;SDS_P2;PMS_P1;PMS_P2;Temp;Humidity;BMP_temperature;BMP_pressure;BME280_temperature;BME280_humidity;BME280_pressure;Samples;Min_cycle;Max_cycle;Signal;HPM_P1;HPM_P2
2020/12/31 00:00:32;;;;;;;9.70;4.57;;;;;;;11.19;73.17;98670.88;5074592;28;20035;-71
2020/12/31 00:02:58;;;;;;;13.43;5.35;;;;;;;11.19;73.53;98669.03;5074348;28;20028;-71
2020/12/31 00:05:23;;;;;;;12.35;5.75;;;;;;;11.16;73.37;98663.44;5074606;28;20039;-71
2020/12/31 00:07:49;;;;;;;9.98;4.90;;;;;;;11.18;73.38;98664.75;5074346;28;20055;-72
2020/12/31 00:10:14;;;;;;;11.48;4.20;;;;;;;11.13;73.41;98647.97;5074254;28;20438;-72
2020/12/31 00:12:40;;;;;;;7.35;3.47;;;;;;;11.20;74.10;98656.44;5073191;28;20115;-72
2020/12/31 00:15:05;;;;;;;7.60;4.35;;;;;;;11.21;74.09;98660.69;5074470;28;20028;-72
2020/12/31 00:17:31;;;;;;;10.63;4.00;;;;;;;11.24;74.48;98667.34;5074447;28;20060;-72
2020/12/31 00:19:56;;;;;;;8.00;3.70;;;;;;;11.27;74.61;98656.06;5073910;28;20035;-72
2020/12/31 00:22:21;;;;;;;6.40;4.00;;;;;;;11.31;74.76;98662.44;5072999;28;20404;-72
2020/12/31 00:24:47;;;;;;;8.43;4.40;;;;;;;11.33;74.22;98653.03;5072314;28;20082;-71
2020/12/31 00:27:12;;;;;;;12.00;5.63;;;;;;;11.29;74.16;98645.84;5074238;28;20085;-72
2020/12/31 00:29:38;;;;;;;16.15;6.05;;;;;;;11.31;73.97;98644.47;5074163;28;20115;-72
2020/12/31 00:32:03;;;;;;;11.45;4.97;;;;;;;11.26;73.75;98641.88;5074416;28;20031;-72
2020/12/31 00:34:29;;;;;;;8.27;4.80;;;;;;;11.20;73.16;98633.16;5074053;28;20098;-71
2020/12/31 00:36:54;;;;;;;8.23;3.65;;;;;;;11.23;73.61;98645.16;5073557;28;20027;-72
2020/12/31 00:39:20;;;;;;;12.10;4.35;;;;;;;11.24;73.63;98633.34;5072822;28;20040;-72
2020/12/31 00:41:45;;;;;;;11.10;4.35;;;;;;;11.26;73.34;98630.38;5073712;28;20103;-72
2020/12/31 00:44:11;;;;;;;13.15;4.05;;;;;;;11.26;73.36;98639.19;5073878;28;20124;-72
2020/12/31 00:46:36;;;;;;;7.93;3.65;;;;;;;11.22;72.89;98630.19;5073923;28;20062;-72
2020/12/31 00:49:02;;;;;;;9.20;3.97;;;;;;;11.26;72.90;98641.88;5073820;28;20161;-72
2020/12/31 00:51:27;;;;;;;7.97;3.58;;;;;;;11.29;72.33;98646.66;5072518;28;20078;-72
2020/12/31 00:53:53;;;;;;;5.78;3.25;;;;;;;11.30;72.95;98639.41;5073529;28;20029;-72
2020/12/31 00:56:18;;;;;;;8.15;3.35;;;;;;;11.26;72.65;98639.19;5074008;28;20052;-72
2020/12/31 00:58:44;;;;;;;10.50;4.70;;;;;;;11.33;72.47;98657.59;5072051;28;20494;-72
2020/12/31 01:01:09;;;;;;;6.57;3.33;;;;;;;11.32;72.44;98646.06;5073637;28;20056;-72
2020/12/31 01:03:35;;;;;;;13.15;4.05;;;;;;;11.23;72.50;98639.78;5073364;28;20095;-72
2020/12/31 01:06:00;;;;;;;8.50;2.67;;;;;;;11.25;73.20;98644.84;5073189;28;20029;-72
2020/12/31 01:08:26;;;;;;;7.90;3.72;;;;;;;11.18;72.72;98634.50;5071665;28;20395;-71
2020/12/31 01:10:52;;;;;;;8.00;2.97;;;;;;;11.23;72.42;98647.81;5073010;28;20126;-71
2020/12/31 01:13:17;;;;;;;5.00;2.28;;;;;;;11.20;72.83;98643.03;5073384;28;20059;-72
2020/12/31 01:15:43;;;;;;;10.55;3.42;;;;;;;11.23;72.65;98647.81;5071854;28;20024;-72
2020/12/31 01:18:08;;;;;;;4.85;2.80;;;;;;;11.19;72.27;98636.09;5073302;28;20056;-72
2020/12/31 01:20:34;;;;;;;7.07;2.55;;;;;;;11.24;72.38;98638.69;5073292;28;20115;-72
2020/12/31 01:22:59;;;;;;;11.07;4.97;;;;;;;11.17;72.58;98624.91;5072622;28;20377;-72
2020/12/31 01:25:24;;;;;;;13.00;4.07;;;;;;;11.20;72.50;98635.81;5071807;28;20032;-71
2020/12/31 01:27:50;;;;;;;15.05;3.70;;;;;;;11.13;72.70;98627.34;5071686;28;20032;-71
2020/12/31 01:30:15;;;;;;;8.40;2.70;;;;;;;11.16;72.29;98628.66;5073091;28;20029;-70
2020/12/31 01:32:40;;;;;;;11.45;2.88;;;;;;;11.07;72.06;98617.00;5072950;28;20046;-71
2020/12/31 01:35:06;;;;;;;12.43;2.67;;;;;;;11.07;72.94;98614.31;5073084;28;20029;-71
2020/12/31 01:37:32;;;;;;;6.53;3.30;;;;;;;11.10;72.30;98619.13;5071639;28;20407;-71
2020/12/31 01:39:57;;;;;;;11.10;3.38;;;;;;;11.05;72.84;98612.72;5072473;28;20039;-73
2020/12/31 01:42:22;;;;;;;12.18;3.28;;;;;;;11.04;72.97;98619.16;5072802;28;20063;-71
2020/12/31 01:44:48;;;;;;;11.40;3.13;;;;;;;11.03;73.13;98619.47;5072451;28;20017;-71
2020/12/31 01:47:14;;;;;;;7.28;3.58;;;;;;;10.97;72.98;98610.69;5072408;28;20028;-71
2020/12/31 01:49:42;;;;;;;11.60;3.38;;;;;;;10.98;73.30;98606.16;5072403;28;20111;-71
2020/12/31 01:52:08;;;;;;;13.10;3.03;;;;;;;10.97;73.36;98602.66;5073010;28;20246;-71
2020/12/31 01:54:34;;;;;;;9.88;3.33;;;;;;;10.99;73.49;98611.22;5071357;28;20568;-71
2020/12/31 01:57:00;;;;;;;7.68;2.38;;;;;;;10.97;73.26;98602.66;5072367;28;20051;-72
2020/12/31 01:59:26;;;;;;;6.78;2.97;;;;;;;10.93;73.18;98604.34;5071186;28;20479;-71
2020/12/31 02:01:53;;;;;;;8.05;3.15;;;;;;;10.83;73.11;98594.59;5072248;28;20043;-71
2020/12/31 02:04:18;;;;;;;5.25;2.80;;;;;;;10.84;73.06;98603.38;5071005;28;20025;-71
2020/12/31 02:06:44;;;;;;;3.90;2.60;;;;;;;10.77;73.36;98601.09;5072178;28;20032;-71
2020/12/31 02:09:11;;;;;;;5.32;3.15;;;;;;;10.72;73.78;98609.19;5072302;28;20403;-71
2020/12/31 02:11:36;;;;;;;5.97;3.20;;;;;;;10.69;73.32;98605.22;5072291;28;20020;-71
2020/12/31 02:14:03;;;;;;;9.43;2.88;;;;;;;10.64;73.30;98602.56;5070407;28;20476;-71
2020/12/31 02:16:29;;;;;;;5.07;2.55;;;;;;;10.50;73.69;98604.38;5070892;28;20170;-71
2020/12/31 02:18:56;;;;;;;9.00;2.90;;;;;;;10.49;74.21;98602.78;5072139;28;20510;-71
2020/12/31 02:21:25;;;;;;;6.32;3.90;;;;;;;10.45;74.01;98596.41;5069853;28;20051;-71
2020/12/31 02:23:51;;;;;;;6.57;2.83;;;;;;;10.44;73.80;98600.19;5071949;28;20411;-71
2020/12/31 02:26:16;;;;;;;9.43;3.05;;;;;;;10.25;73.93;98566.13;5070648;28;20050;-71
2020/12/31 02:28:42;;;;;;;14.65;3.92;;;;;;;10.33;74.23;98594.91;5070370;28;20395;-71
2020/12/31 02:31:07;;;;;;;3.08;2.70;;;;;;;10.24;74.44;98591.25;5071924;28;20052;-71
2020/12/31 02:33:33;;;;;;;8.18;3.20;;;;;;;10.16;75.05;98586.56;5071708;28;20185;-71
2020/12/31 02:35:58;;;;;;;6.55;3.55;;;;;;;10.08;75.31;98586.09;5071347;28;20024;-71
2020/12/31 02:38:24;;;;;;;7.15;3.17;;;;;;;10.03;75.26;98591.50;5070435;28;20059;-71
2020/12/31 02:40:49;;;;;;;8.65;4.05;;;;;;;10.02;75.53;98578.41;5070208;28;20024;-71
2020/12/31 02:43:15;;;;;;;5.47;2.97;;;;;;;9.94;75.53;98561.94;5071869;28;20046;-71
2020/12/31 02:45:40;;;;;;;8.38;3.70;;;;;;;9.93;75.67;98563.00;5070206;28;20021;-71
2020/12/31 02:48:06;;;;;;;5.82;4.10;;;;;;;9.96;75.85;98574.19;5071096;28;20024;-71
2020/12/31 02:50:31;;;;;;;9.48;3.58;;;;;;;9.92;76.03;98580.13;5070287;28;20198;-71
2020/12/31 02:52:56;;;;;;;6.65;3.20;;;;;;;9.87;76.15;98571.38;5071582;28;20067;-71
2020/12/31 02:55:22;;;;;;;4.63;3.15;;;;;;;9.84;77.34;98563.91;5070194;28;20078;-71
2020/12/31 02:57:47;;;;;;;8.90;3.67;;;;;;;9.80;76.40;98561.00;5071172;28;20060;-71
2020/12/31 03:00:13;;;;;;;4.53;2.90;;;;;;;9.81;77.14;98561.81;5070349;28;20483;-71
2020/12/31 03:02:38;;;;;;;6.88;2.45;;;;;;;9.87;76.71;98555.34;5071378;28;20103;-71
2020/12/31 03:05:03;;;;;;;6.28;3.28;;;;;;;9.89;77.05;98561.19;5071094;28;20032;-71
2020/12/31 03:07:29;;;;;;;12.13;3.83;;;;;;;9.90;76.50;98563.59;5071594;28;20059;-71
2020/12/31 03:09:54;;;;;;;10.43;2.97;;;;;;;9.93;76.79;98552.31;5071047;28;20082;-71
2020/12/31 03:12:19;;;;;;;8.98;2.53;;;;;;;9.99;76.25;98552.28;5071592;28;20052;-71
2020/12/31 03:14:45;;;;;;;4.60;2.78;;;;;;;9.93;77.00;98549.63;5070967;28;20029;-71
2020/12/31 03:17:10;;;;;;;9.55;3.90;;;;;;;9.96;76.89;98544.81;5069841;28;20025;-71
2020/12/31 03:19:36;;;;;;;11.52;3.50;;;;;;;9.94;76.56;98545.91;5070912;28;20418;-71
2020/12/31 03:22:01;;;;;;;8.02;4.03;;;;;;;9.90;76.69;98550.22;5070570;28;20479;-71
2020/12/31 03:24:26;;;;;;;8.63;3.67;;;;;;;9.81;76.51;98541.22;5070763;28;20082;-71
2020/12/31 03:26:52;;;;;;;6.43;3.08;;;;;;;9.84;76.53;98542.53;5070559;28;20025;-71
2020/12/31 03:29:17;;;;;;;7.30;3.72;;;;;;;9.83;76.93;98543.63;5070809;28;20125;-71
2020/12/31 03:31:42;;;;;;;5.28;3.25;;;;;;;9.73;76.92;98536.53;5070868;28;20032;-71
2020/12/31 03:34:08;;;;;;;12.05;4.53;;;;;;;9.77;76.85;98549.00;5070764;28;20629;-71
2020/12/31 03:36:33;;;;;;;7.90;3.17;;;;;;;9.77;76.85;98537.53;5070996;28;20029;-71
2020/12/31 03:38:59;;;;;;;5.57;3.28;;;;;;;9.67;77.23;98522.41;5070677;28;20413;-71
2020/12/31 03:41:24;;;;;;;3.50;2.95;;;;;;;9.59;77.75;98513.16;5069579;28;20071;-71
2020/12/31 03:43:50;;;;;;;8.10;3.20;;;;;;;9.54;77.62;98512.41;5070631;28;20114;-71
2020/12/31 03:46:15;;;;;;;7.13;3.67;;;;;;;9.55;77.74;98514.78;5070650;28;20324;-71
2020/12/31 03:48:40;;;;;;;9.00;3.40;;;;;;;9.61;77.41;98535.00;5069562;28;20021;-71
2020/12/31 03:51:06;;;;;;;10.90;3.13;;;;;;;9.63;77.09;98534.75;5069247;28;20031;-71
2020/12/31 03:53:31;;;;;;;9.10;2.95;;;;;;;9.58;77.36;98522.25;5070560;28;20035;-71
2020/12/31 03:55:57;;;;;;;6.35;2.90;;;;;;;9.52;76.95;98526.03;5069219;28;20116;-71
2020/12/31 03:58:22;;;;;;;9.20;3.03;;;;;;;9.52;77.52;98527.91;5069431;28;20033;-71
2020/12/31 04:00:47;;;;;;;6.60;3.38;;;;;;;9.43;77.85;98528.50;5070534;28;20025;-72
2020/12/31 04:03:13;;;;;;;9.43;3.65;;;;;;;9.36;78.40;98517.38;5070628;28;20020;-72
2020/12/31 04:05:38;;;;;;;7.95;3.45;;;;;;;9.39;78.39;98519.47;5069299;28;20025;-72
2020/12/31 04:08:03;;;;;;;6.60;3.30;;;;;;;9.36;78.46;98522.72;5070218;28;20078;-71
2020/12/31 04:10:29;;;;;;;12.23;4.95;;;;;;;9.32;78.77;98513.66;5070674;28;20059;-71
2020/12/31 04:12:54;;;;;;;9.90;5.25;;;;;;;9.31;78.69;98522.75;5070382;28;20028;-71
2020/12/31 04:15:20;;;;;;;11.15;4.93;;;;;;;9.32;78.95;98528.91;5069096;28;20436;-72
2020/12/31 04:17:45;;;;;;;9.60;4.35;;;;;;;9.24;79.17;98523.09;5069240;28;20028;-71
2020/12/31 04:20:10;;;;;;;4.78;4.07;;;;;;;9.26;79.27;98528.13;5069001;28;20395;-71
2020/12/31 04:22:36;;;;;;;12.60;5.45;;;;;;;9.23;79.74;98516.16;5070405;28;20067;-71
2020/12/31 04:25:01;;;;;;;12.82;4.63;;;;;;;9.24;80.06;98524.94;5070270;28;20116;-72
2020/12/31 04:27:27;;;;;;;8.00;4.25;;;;;;;9.22;80.11;98529.78;5069121;28;20487;-71
2020/12/31 04:29:52;;;;;;;5.80;3.95;;;;;;;9.21;80.08;98520.19;5069965;28;20043;-71
2020/12/31 04:32:17;;;;;;;8.88;4.43;;;;;;;9.16;80.41;98517.56;5069111;28;20028;-72
2020/12/31 04:34:43;;;;;;;9.55;5.30;;;;;;;9.23;80.63;98528.72;5068641;28;20048;-71
2020/12/31 04:37:08;;;;;;;8.52;3.97;;;;;;;9.24;80.41;98522.28;5070059;28;20029;-71
2020/12/31 04:39:34;;;;;;;11.00;4.85;;;;;;;9.23;80.29;98516.16;5069107;28;20033;-72
2020/12/31 04:41:59;;;;;;;11.32;4.65;;;;;;;9.23;80.48;98516.16;5070157;28;20376;-71
2020/12/31 04:44:25;;;;;;;8.93;4.60;;;;;;;9.26;80.32;98520.94;5070817;28;20024;-71
2020/12/31 04:46:56;;;;;;;8.60;3.95;;;;;;;9.29;80.00;98519.59;5073633;28;20502;-71
2020/12/31 04:49:27;;;;;;;12.23;3.92;;;;;;;9.31;80.22;98517.41;5073835;28;20036;-71
2020/12/31 04:51:54;;;;;;;12.32;3.92;;;;;;;9.35;80.08;98515.78;5072031;28;20082;-71
2020/12/31 04:54:20;;;;;;;8.75;3.67;;;;;;;9.36;80.04;98512.06;5073752;28;20041;-71
2020/12/31 04:56:47;;;;;;;7.07;3.47;;;;;;;9.35;79.65;98509.63;5073702;28;20025;-71
2020/12/31 04:59:12;;;;;;;15.43;4.88;;;;;;;9.32;79.94;98500.31;5072122;28;20035;-71
2020/12/31 05:01:43;;;;;;;8.48;4.50;;;;;;;9.32;80.03;98491.53;5073359;28;20107;-71
2020/12/31 05:04:08;;;;;;;13.75;6.65;;;;;;;9.29;79.98;98499.03;5072015;28;20435;-71
2020/12/31 05:06:38;;;;;;;7.15;3.70;;;;;;;9.24;80.19;98488.41;5073279;28;20024;-71
2020/12/31 05:09:17;;;;;;;11.00;3.63;;;;;;;9.26;79.83;98474.78;5073339;28;20143;-71
2020/12/31 05:11:47;;;;;;;7.78;4.35;;;;;;;9.24;79.83;98475.06;5072181;28;20024;-71
2020/12/31 05:14:12;;;;;;;11.20;4.38;;;;;;;9.28;80.02;98485.97;5073188;28;20041;-71
2020/12/31 05:16:38;;;;;;;14.48;3.75;;;;;;;9.26;79.63;98480.09;5073056;28;20033;-71
2020/12/31 05:19:34;;;;;;;13.77;3.80;;;;;;;9.22;79.81;98482.53;5073078;28;20459;-71
2020/12/31 05:22:16;;;;;;;14.18;5.25;;;;;;;9.18;80.37;98478.03;5062948;28;20039;-71
2020/12/31 05:24:50;;;;;;;7.53;3.97;;;;;;;9.07;80.40;98466.66;5071863;28;20479;-71
2020/12/31 05:27:22;;;;;;;5.63;3.90;;;;;;;9.12;80.50;98477.31;5072638;28;20480;-71
2020/12/31 05:29:58;;;;;;;6.95;4.28;;;;;;;9.09;80.71;98476.00;5071833;28;20399;-71
2020/12/31 05:32:25;;;;;;;12.90;4.95;;;;;;;9.09;80.91;98470.66;5071738;28;20078;-71
2020/12/31 05:34:54;;;;;;;11.38;5.28;;;;;;;9.04;81.05;98468.00;5073078;28;20094;-71
2020/12/31 05:37:21;;;;;;;19.90;8.15;;;;;;;9.09;81.21;98476.00;5071739;28;20519;-71
2020/12/31 05:39:56;;;;;;;11.23;5.60;;;;;;;9.12;81.01;98479.97;5071613;28;20035;-71
2020/12/31 05:42:22;;;;;;;12.20;4.47;;;;;;;9.12;81.28;98478.09;5071645;28;20032;-71
2020/12/31 05:44:58;;;;;;;10.15;6.00;;;;;;;9.10;81.05;98474.13;5071374;28;20040;-71
2020/12/31 05:47:24;;;;;;;8.60;5.13;;;;;;;9.15;81.32;98486.63;5072787;28;20070;-71
2020/12/31 05:49:49;;;;;;;13.13;5.20;;;;;;;9.13;81.46;98489.56;5072706;28;20470;-71
2020/12/31 05:52:32;;;;;;;7.93;5.07;;;;;;;9.17;81.42;98493.25;5072140;28;20020;-71
2020/12/31 05:54:59;;;;;;;10.30;4.75;;;;;;;9.28;81.89;98502.75;5071115;28;20028;-70
2020/12/31 05:57:42;;;;;;;9.43;5.38;;;;;;;9.36;81.54;98506.72;5072259;28;20028;-71
2020/12/31 06:00:11;;;;;;;16.15;8.48;;;;;;;9.44;81.35;98510.63;5072304;28;20337;-71
2020/12/31 06:02:42;;;;;;;20.90;8.38;;;;;;;9.45;81.09;98493.53;5072452;28;20054;-71
2020/12/31 06:05:10;;;;;;;15.63;8.63;;;;;;;9.56;81.16;98508.38;5070692;28;20048;-71
2020/12/31 06:07:42;;;;;;;32.33;13.00;;;;;;;9.63;80.64;98509.91;5071003;28;20031;-71
2020/12/31 06:10:09;;;;;;;25.08;11.55;;;;;;;9.68;80.53;98509.84;5070730;28;20029;-71
2020/12/31 06:13:00;;;;;;;12.35;7.85;;;;;;;9.75;80.25;98511.13;5072168;28;20028;-71
2020/12/31 06:15:33;;;;;;;10.93;5.70;;;;;;;9.78;80.48;98499.88;5070812;28;20090;-71
2020/12/31 06:18:01;;;;;;;9.52;5.68;;;;;;;9.84;80.39;98489.94;5070293;28;20031;-72
2020/12/31 06:20:29;;;;;;;13.70;5.25;;;;;;;9.96;80.39;98510.91;5072433;28;20050;-72
2020/12/31 06:23:10;;;;;;;15.77;6.47;;;;;;;10.07;80.33;98509.69;5071983;28;20040;-72
2020/12/31 06:25:35;;;;;;;12.85;5.88;;;;;;;10.16;79.93;98498.38;5071946;28;20269;-71
2020/12/31 06:28:09;;;;;;;9.15;5.88;;;;;;;10.18;79.85;98488.19;5071594;28;20029;-72
2020/12/31 06:30:37;;;;;;;9.95;5.07;;;;;;;10.33;79.96;98498.69;5071728;28;20032;-72
2020/12/31 06:33:23;;;;;;;13.23;5.10;;;;;;;10.44;79.47;98503.94;5071125;28;20397;-72
2020/12/31 06:35:53;;;;;;;9.20;4.93;;;;;;;10.52;79.47;98503.28;5070859;28;20157;-72
2020/12/31 06:38:40;;;;;;;9.10;4.75;;;;;;;10.59;78.57;98495.69;5069850;28;20028;-72
2020/12/31 06:41:31;;;;;;;17.73;7.03;;;;;;;10.74;78.69;98500.00;5071229;28;20067;-73
2020/12/31 06:44:13;;;;;;;13.15;4.10;;;;;;;10.83;78.32;98502.84;5071039;28;20472;-73
2020/12/31 06:46:46;;;;;;;11.15;3.95;;;;;;;10.92;78.05;98500.31;5070087;28;20025;-72
2020/12/31 06:49:13;;;;;;;8.18;3.38;;;;;;;11.01;77.84;98502.03;5071447;28;20039;-71
2020/12/31 06:51:39;;;;;;;7.55;3.55;;;;;;;11.09;77.26;98500.56;5070123;28;20491;-72
2020/12/31 06:54:05;;;;;;;6.85;3.17;;;;;;;11.17;77.03;98501.78;5070934;28;20507;-72
2020/12/31 06:56:50;;;;;;;7.60;3.13;;;;;;;11.20;77.36;98477.09;5071406;28;20025;-71
2020/12/31 06:59:32;;;;;;;8.70;4.75;;;;;;;11.28;77.10;98470.25;5069761;28;20552;-72
2020/12/31 07:02:00;;;;;;;10.05;5.00;;;;;;;11.38;77.09;98475.47;5069756;28;20081;-72
2020/12/31 07:04:36;;;;;;;14.27;4.47;;;;;;;11.50;76.96;98481.13;5071140;28;20445;-72
2020/12/31 07:07:21;;;;;;;11.32;4.10;;;;;;;11.59;76.26;98477.78;5069256;28;20509;-72
2020/12/31 07:09:55;;;;;;;9.63;3.90;;;;;;;11.65;76.43;98476.56;5063507;28;20036;-72
2020/12/31 07:12:39;;;;;;;9.60;3.88;;;;;;;11.75;75.40;98464.88;5070908;28;20543;-72
2020/12/31 07:15:05;;;;;;;4.85;3.42;;;;;;;11.77;75.63;98452.00;5069539;28;20127;-72
2020/12/31 07:17:35;;;;;;;7.13;2.78;;;;;;;11.86;75.17;98450.19;5071439;28;20360;-71
2020/12/31 07:20:02;;;;;;;11.30;3.58;;;;;;;11.97;74.76;98451.59;5070564;28;20028;-72
2020/12/31 07:22:29;;;;;;;15.52;4.25;;;;;;;11.98;74.29;98447.81;5069673;28;20116;-72
2020/12/31 07:25:05;;;;;;;9.27;4.15;;;;;;;12.12;73.79;98441.63;5070981;28;20071;-72
2020/12/31 07:27:33;;;;;;;8.88;3.45;;;;;;;12.16;73.72;98432.69;5070999;28;20142;-71
2020/12/31 07:30:08;;;;;;;8.55;3.58;;;;;;;12.29;74.01;98455.22;5069114;28;20093;-71
2020/12/31 07:32:46;;;;;;;8.35;4.05;;;;;;;12.37;73.06;98437.63;5070925;28;20095;-72
2020/12/31 07:35:30;;;;;;;12.10;4.53;;;;;;;12.43;73.66;98441.75;5070676;28;20123;-72
2020/12/31 07:37:57;;;;;;;8.43;4.18;;;;;;;12.60;73.24;98449.16;5069614;28;20493;-72
2020/12/31 07:40:51;;;;;;;10.48;3.72;;;;;;;12.73;72.43;98447.53;5069263;28;20023;-73
2020/12/31 07:43:18;;;;;;;6.50;2.90;;;;;;;12.80;71.79;98439.03;5070600;28;20021;-73
2020/12/31 07:45:52;;;;;;;6.82;3.30;;;;;;;12.89;72.10;98442.59;5069475;28;20021;-73
2020/12/31 07:48:19;;;;;;;8.50;2.92;;;;;;;12.96;71.97;98436.78;5070299;28;20105;-73
2020/12/31 07:50:45;;;;;;;6.25;3.45;;;;;;;13.06;71.19;98447.28;5069417;28;20024;-72
2020/12/31 07:53:12;;;;;;;4.30;2.35;;;;;;;13.16;70.81;98451.59;5070449;28;20025;-73
2020/12/31 07:55:38;;;;;;;4.75;2.47;;;;;;;13.20;70.34;98449.88;5070770;28;20056;-73
2020/12/31 07:58:07;;;;;;;7.32;3.75;;;;;;;13.25;70.23;98435.53;5070480;28;20055;-73
2020/12/31 08:00:33;;;;;;;13.80;4.28;;;;;;;13.36;70.49;98452.16;5070670;28;20412;-73
2020/12/31 08:02:59;;;;;;;8.63;3.83;;;;;;;13.34;69.81;98446.28;5069314;28;20021;-73
2020/12/31 08:05:26;;;;;;;9.85;4.00;;;;;;;13.45;69.60;98450.31;5068952;28;20098;-73
2020/12/31 08:07:52;;;;;;;12.00;5.15;;;;;;;13.50;69.62;98452.09;5070884;28;20028;-72
2020/12/31 08:10:18;;;;;;;12.63;4.72;;;;;;;13.51;69.67;98440.25;5070287;28;20017;-72
2020/12/31 08:12:53;;;;;;;9.43;4.88;;;;;;;13.66;69.53;98445.22;5070644;28;20059;-72
2020/12/31 08:15:23;;;;;;;9.55;3.67;;;;;;;13.75;69.48;98447.91;5068988;28;20060;-72
2020/12/31 08:17:50;;;;;;;11.88;4.72;;;;;;;13.82;68.74;98429.44;5069137;28;20028;-72
2020/12/31 08:20:17;;;;;;;7.47;3.85;;;;;;;13.97;67.21;98428.22;5072499;28;20029;-72
2020/12/31 08:22:49;;;;;;;8.77;3.40;;;;;;;14.11;66.53;98419.22;5074127;28;20090;-72
2020/12/31 08:25:19;;;;;;;8.75;3.53;;;;;;;14.24;65.27;98418.28;5073516;28;20031;-71
2020/12/31 08:27:46;;;;;;;4.82;2.25;;;;;;;14.39;64.90;98419.69;5072901;28;20031;-73
2020/12/31 08:30:12;;;;;;;8.05;3.45;;;;;;;14.51;64.48;98403.75;5073797;28;20103;-72
2020/12/31 08:32:51;;;;;;;8.82;2.45;;;;;;;14.61;63.32;98394.53;5072615;28;20142;-72
2020/12/31 08:35:53;;;;;;;9.05;2.80;;;;;;;14.70;63.15;98403.41;5073881;28;20044;-72
2020/12/31 08:38:21;;;;;;;10.85;2.55;;;;;;;14.80;62.40;98390.75;5064551;28;20036;-72
2020/12/31 08:40:53;;;;;;;4.90;2.60;;;;;;;14.87;62.22;98388.34;5072677;28;20052;-73
2020/12/31 08:43:36;;;;;;;10.43;2.70;;;;;;;14.86;61.36;98373.31;5073331;28;20400;-72
2020/12/31 08:46:03;;;;;;;4.85;2.75;;;;;;;14.96;60.67;98389.09;5072367;28;20119;-72
2020/12/31 08:48:33;;;;;;;6.23;2.90;;;;;;;15.04;59.94;98374.06;5072506;28;20025;-72
2020/12/31 08:51:04;;;;;;;7.82;2.95;;;;;;;15.11;59.41;98357.38;5073556;28;20266;-72
2020/12/31 08:53:31;;;;;;;5.28;2.28;;;;;;;15.08;59.12;98350.75;5073769;28;20036;-74
2020/12/31 08:55:57;;;;;;;6.35;2.80;;;;;;;15.20;59.52;98375.09;5072384;28;20093;-72
2020/12/31 08:58:30;;;;;;;10.32;3.60;;;;;;;15.25;58.69;98352.56;5073181;28;20028;-72
2020/12/31 09:00:57;;;;;;;7.28;2.83;;;;;;;15.32;58.78;98368.25;5073632;28;20052;-72
2020/12/31 09:03:24;;;;;;;6.38;2.58;;;;;;;15.36;58.38;98372.66;5071925;28;20035;-73
2020/12/31 09:06:00;;;;;;;6.32;2.05;;;;;;;15.44;58.42;98360.25;5073527;28;20082;-72
2020/12/31 09:08:27;;;;;;;4.85;2.03;;;;;;;15.51;58.27;98378.59;5073187;28;20060;-72
2020/12/31 09:11:05;;;;;;;7.38;2.40;;;;;;;15.50;57.88;98353.56;5072153;28;20158;-73
2020/12/31 09:13:37;;;;;;;6.75;2.67;;;;;;;15.61;57.12;98358.56;5073065;28;20499;-74
2020/12/31 09:16:27;;;;;;;6.95;2.53;;;;;;;15.67;56.67;98350.00;5073689;28;20040;-72
2020/12/31 09:18:57;;;;;;;8.55;2.17;;;;;;;15.75;57.01;98351.03;5072054;28;20028;-74
2020/12/31 09:21:28;;;;;;;5.88;3.17;;;;;;;15.79;56.12;98337.69;5071648;28;20384;-74
2020/12/31 09:23:53;;;;;;;3.15;1.95;;;;;;;15.81;55.83;98349.72;5073125;28;20021;-74
2020/12/31 09:26:26;;;;;;;3.03;2.08;;;;;;;15.86;56.17;98348.78;5072585;28;20402;-72
2020/12/31 09:28:51;;;;;;;8.57;3.15;;;;;;;15.90;56.60;98347.00;5072772;28;20103;-72
2020/12/31 09:31:18;;;;;;;6.68;2.55;;;;;;;15.99;56.07;98342.34;5072711;28;20056;-72
2020/12/31 09:33:47;;;;;;;2.78;1.85;;;;;;;15.93;54.68;98323.97;5071472;28;20526;-72
2020/12/31 09:36:20;;;;;;;4.53;2.30;;;;;;;15.99;55.11;98346.94;5072681;28;20024;-72
2020/12/31 09:38:45;;;;;;;4.63;2.50;;;;;;;16.05;55.10;98353.72;5072943;28;20049;-72
2020/12/31 09:41:13;;;;;;;4.93;2.33;;;;;;;16.09;55.44;98340.38;5072644;28;20143;-72
2020/12/31 09:43:38;;;;;;;8.83;3.10;;;;;;;16.11;54.72;98325.44;5071449;28;20032;-73
2020/12/31 09:46:03;;;;;;;5.18;2.45;;;;;;;16.14;55.48;98327.47;5072451;28;20794;-73
2020/12/31 09:48:29;;;;;;;5.68;2.58;;;;;;;16.16;53.23;98310.94;5072182;28;20024;-73
2020/12/31 09:50:54;;;;;;;5.07;2.58;;;;;;;16.13;52.91;98298.91;5071423;28;20037;-73
2020/12/31 09:53:19;;;;;;;3.97;2.03;;;;;;;16.11;53.32;98314.66;5071024;28;20400;-73
2020/12/31 09:55:45;;;;;;;2.97;2.00;;;;;;;16.17;53.55;98318.72;5070926;28;20028;-73
2020/12/31 09:58:10;;;;;;;4.15;1.90;;;;;;;16.12;52.35;98305.41;5071981;28;20474;-73
2020/12/31 10:00:35;;;;;;;4.55;2.50;;;;;;;16.04;53.26;98311.69;5071149;28;20044;-73
2020/12/31 10:03:01;;;;;;;6.00;3.15;;;;;;;16.00;53.93;98302.66;5070981;28;20036;-73
2020/12/31 10:05:26;;;;;;;5.60;1.90;;;;;;;15.94;54.67;98302.09;5071787;28;20060;-73
2020/12/31 10:07:51;;;;;;;5.07;2.90;;;;;;;16.02;55.49;98305.81;5072545;28;20080;-73
2020/12/31 10:10:17;;;;;;;7.78;3.33;;;;;;;16.01;55.74;98301.56;5071695;28;20090;-73
2020/12/31 10:12:42;;;;;;;5.88;2.70;;;;;;;16.10;56.47;98317.66;5072514;28;20102;-74
2020/12/31 10:15:08;;;;;;;7.38;3.17;;;;;;;16.15;56.75;98304.75;5072049;28;20028;-73
2020/12/31 10:17:33;;;;;;;13.50;2.95;;;;;;;16.16;55.41;98290.16;5070804;28;20055;-73
2020/12/31 10:19:59;;;;;;;4.70;2.53;;;;;;;16.21;54.72;98283.78;5071725;28;20480;-72
2020/12/31 10:22:24;;;;;;;5.60;2.47;;;;;;;16.26;54.06;98280.88;5070374;28;20020;-73
2020/12/31 10:24:50;;;;;;;5.78;2.90;;;;;;;16.30;54.55;98276.38;5070546;28;20090;-73
2020/12/31 10:27:15;;;;;;;8.55;3.17;;;;;;;16.31;55.20;98260.97;5071700;28;20065;-74
2020/12/31 10:29:41;;;;;;;4.68;3.08;;;;;;;16.38;55.16;98273.91;5070213;28;20033;-73
2020/12/31 10:32:06;;;;;;;9.52;4.10;;;;;;;16.36;55.03;98263.47;5070620;28;20115;-73
2020/12/31 10:34:32;;;;;;;7.22;2.58;;;;;;;16.35;54.58;98258.41;5071610;28;20049;-72
2020/12/31 10:36:58;;;;;;;7.22;2.28;;;;;;;16.32;54.28;98255.25;5071491;28;20021;-74
2020/12/31 10:39:24;;;;;;;7.38;2.70;;;;;;;16.28;54.03;98262.44;5071683;28;20093;-74
2020/12/31 10:41:50;;;;;;;5.85;3.20;;;;;;;16.26;54.05;98255.78;5069615;28;20115;-73
2020/12/31 10:44:17;;;;;;;3.03;2.22;;;;;;;16.15;51.87;98245.41;5070107;28;20429;-73
2020/12/31 10:46:43;;;;;;;5.95;2.47;;;;;;;16.18;51.76;98238.56;5071913;28;20036;-72
2020/12/31 10:49:09;;;;;;;4.72;2.65;;;;;;;16.14;51.85;98251.16;5071605;28;20483;-74
2020/12/31 10:51:35;;;;;;;8.50;3.40;;;;;;;16.08;51.60;98249.78;5071102;28;20029;-74
2020/12/31 10:54:01;;;;;;;6.38;2.13;;;;;;;16.08;51.41;98244.41;5071228;28;20029;-74
2020/12/31 10:56:26;;;;;;;7.35;2.47;;;;;;;16.11;51.70;98257.19;5071281;28;20103;-74
2020/12/31 10:58:51;;;;;;;5.97;2.35;;;;;;;16.09;52.19;98252.16;5070147;28;20048;-72
2020/12/31 11:01:17;;;;;;;5.05;2.50;;;;;;;16.11;52.26;98259.91;5069860;28;20480;-72
2020/12/31 11:03:43;;;;;;;11.48;2.97;;;;;;;16.13;52.85;98254.97;5071587;28;20029;-74
2020/12/31 11:06:16;;;;;;;8.07;3.55;;;;;;;16.03;52.24;98234.59;5069991;28;20509;-73
2020/12/31 11:08:41;;;;;;;5.97;3.80;;;;;;;16.07;52.31;98230.09;5071038;28;20021;-72
2020/12/31 11:11:07;;;;;;;3.90;2.90;;;;;;;16.06;51.70;98228.53;5069856;28;20024;-75
2020/12/31 11:13:32;;;;;;;7.70;3.38;;;;;;;16.14;53.11;98230.34;5070727;28;20031;-74
2020/12/31 11:15:57;;;;;;;7.00;2.85;;;;;;;16.16;54.45;98230.00;5071153;28;20472;-72
2020/12/31 11:18:23;;;;;;;7.40;3.03;;;;;;;16.14;54.04;98232.28;5069601;28;20029;-72
2020/12/31 11:20:52;;;;;;;10.02;3.50;;;;;;;16.11;54.65;98214.03;5070910;28;20024;-72
2020/12/31 11:23:17;;;;;;;10.18;3.78;;;;;;;16.14;53.65;98229.56;5069446;28;20024;-72
2020/12/31 11:25:42;;;;;;;8.98;3.58;;;;;;;16.14;53.73;98224.19;5069732;28;20029;-72
2020/12/31 11:28:08;;;;;;;9.55;4.18;;;;;;;16.11;53.31;98216.75;5071010;28;20024;-74
2020/12/31 11:30:33;;;;;;;10.13;3.55;;;;;;;16.04;52.83;98225.38;5069362;28;20024;-72
2020/12/31 11:32:58;;;;;;;6.50;2.88;;;;;;;15.98;53.18;98205.16;5069453;28;20113;-74
2020/12/31 11:35:24;;;;;;;9.60;3.20;;;;;;;15.99;53.45;98209.41;5070828;28;20067;-72
2020/12/31 11:37:49;;;;;;;5.85;3.30;;;;;;;15.95;54.28;98203.09;5069643;28;20522;-73